createdAt,value
2019-05-09T00:02:15.023Z,1.90
2019-05-09T00:04:56.124Z,1.90
2019-05-09T00:07:33.970Z,1.80
2019-05-09T00:10:11.529Z,2.07
2019-05-09T00:12:46.001Z,2.13
2019-05-09T00:15:20.829Z,2.00
2019-05-09T00:18:03.678Z,1.90
2019-05-09T00:20:43.698Z,2.10
2019-05-09T00:23:26.105Z,2.40
2019-05-09T00:26:04.125Z,2.10
2019-05-09T00:28:44.196Z,2.20
2019-05-09T00:31:25.717Z,2.20
2019-05-09T00:34:00.029Z,2.07
2019-05-09T00:36:33.937Z,2.70
2019-05-09T00:39:06.191Z,2.67
2019-05-09T00:41:37.793Z,2.40
2019-05-09T00:44:10.102Z,2.30
2019-05-09T00:46:43.141Z,2.60
2019-05-09T00:49:16.512Z,2.20
2019-05-09T00:51:47.256Z,2.30
2019-05-09T00:54:17.815Z,2.13
2019-05-09T00:56:48.587Z,2.23
2019-05-09T00:59:33.169Z,2.47
2019-05-09T01:02:04.086Z,2.53
2019-05-09T01:04:34.747Z,2.10
2019-05-09T01:07:05.575Z,2.40
2019-05-09T01:09:36.066Z,2.47
2019-05-09T01:12:06.787Z,2.80
2019-05-09T01:14:37.389Z,2.30
2019-05-09T01:17:08.023Z,2.90
2019-05-09T01:19:38.604Z,2.93
2019-05-09T01:22:13.315Z,2.73
2019-05-09T01:24:45.092Z,2.60
2019-05-09T01:27:15.661Z,2.90
2019-05-09T01:29:48.207Z,3.00
2019-05-09T01:32:36.400Z,2.57
2019-05-09T01:35:07.015Z,3.07
2019-05-09T01:37:37.664Z,2.77
2019-05-09T01:40:08.355Z,2.90
2019-05-09T01:42:43.087Z,2.90
2019-05-09T01:45:14.199Z,2.77
2019-05-09T01:47:44.889Z,3.00
2019-05-09T01:50:19.629Z,3.20
2019-05-09T01:52:50.258Z,3.00
2019-05-09T01:55:23.496Z,2.87
2019-05-09T01:57:54.190Z,3.10
2019-05-09T02:00:25.066Z,2.67
2019-05-09T02:02:56.821Z,2.70
2019-05-09T02:05:43.493Z,2.77
2019-05-09T02:08:14.384Z,2.87
2019-05-09T02:10:45.096Z,2.90
2019-05-09T02:13:19.163Z,2.80
2019-05-09T02:16:03.670Z,3.00
2019-05-09T02:18:38.312Z,3.17
2019-05-09T02:21:11.483Z,2.60
2019-05-09T02:23:43.163Z,2.80
2019-05-09T02:26:15.551Z,3.37
2019-05-09T02:28:46.119Z,3.00
2019-05-09T02:31:16.770Z,2.97
2019-05-09T02:33:54.656Z,3.10
2019-05-09T02:36:25.315Z,3.40
2019-05-09T02:39:09.182Z,3.77
2019-05-09T02:41:58.928Z,3.90
2019-05-09T02:44:12.418Z,3.77
2019-05-09T02:46:53.655Z,3.43
2019-05-09T02:49:24.243Z,3.93
2019-05-09T02:52:12.012Z,3.87
2019-05-09T02:54:42.669Z,4.13
2019-05-09T02:57:13.293Z,4.10
2019-05-09T03:00:03.845Z,3.97
2019-05-09T03:02:43.289Z,4.30
2019-05-09T03:05:14.106Z,4.13
2019-05-09T03:07:50.721Z,4.70
2019-05-09T03:10:22.423Z,4.00
2019-05-09T03:12:53.126Z,4.43
2019-05-09T03:15:31.061Z,4.07
2019-05-09T03:18:01.876Z,4.10
2019-05-09T03:20:34.156Z,4.63
2019-05-09T03:23:04.684Z,4.80
2019-05-09T03:25:40.530Z,4.40
2019-05-09T03:28:28.684Z,4.53
2019-05-09T03:31:10.024Z,5.10
2019-05-09T03:33:41.118Z,4.23
2019-05-09T03:36:11.832Z,4.50
2019-05-09T03:38:44.386Z,4.83
2019-05-09T03:41:19.850Z,5.20
2019-05-09T03:44:20.573Z,4.63
2019-05-09T03:47:13.173Z,4.33
2019-05-09T03:49:43.776Z,4.57
2019-05-09T03:52:17.675Z,4.40
2019-05-09T03:54:53.574Z,4.17
2019-05-09T03:57:28.909Z,5.00
2019-05-09T03:59:59.507Z,4.83
2019-05-09T04:02:30.170Z,4.60
2019-05-09T04:05:00.760Z,4.53
2019-05-09T04:07:32.422Z,4.77
2019-05-09T04:10:07.830Z,4.50
2019-05-09T04:12:52.844Z,4.43
2019-05-09T04:15:10.856Z,4.33
2019-05-09T04:17:44.033Z,4.63
2019-05-09T04:20:14.894Z,4.47
2019-05-09T04:22:59.309Z,4.57
2019-05-09T04:25:31.956Z,4.20
2019-05-09T04:28:03.681Z,4.20
2019-05-09T04:30:34.360Z,4.23
2019-05-09T04:33:09.731Z,4.60
2019-05-09T04:35:49.203Z,3.90
2019-05-09T04:38:24.793Z,4.80
2019-05-09T04:40:55.566Z,4.27
2019-05-09T04:43:35.544Z,3.73
2019-05-09T04:46:01.288Z,3.90
2019-05-09T04:48:37.364Z,3.97
2019-05-09T04:51:15.433Z,4.87
2019-05-09T04:53:47.966Z,4.20
2019-05-09T04:56:19.950Z,3.87
2019-05-09T04:58:58.176Z,4.07
2019-05-09T05:01:38.759Z,4.40
2019-05-09T05:04:08.448Z,4.10
2019-05-09T05:06:40.590Z,3.83
2019-05-09T05:09:11.364Z,3.90
2019-05-09T05:11:42.061Z,4.37
2019-05-09T05:14:22.930Z,4.67
2019-05-09T05:17:07.687Z,4.03
2019-05-09T05:19:35.544Z,4.10
2019-05-09T05:22:13.540Z,4.10
2019-05-09T05:24:48.770Z,3.83
2019-05-09T05:27:19.098Z,3.70
2019-05-09T05:29:49.758Z,4.27
2019-05-09T05:32:32.160Z,4.10
2019-05-09T05:35:04.455Z,4.10
2019-05-09T05:37:35.028Z,3.93
2019-05-09T05:40:07.806Z,4.70
2019-05-09T05:42:44.354Z,3.60
2019-05-09T05:45:18.272Z,3.67
2019-05-09T05:47:57.719Z,3.80
2019-05-09T05:50:28.431Z,3.60
2019-05-09T05:52:59.175Z,4.20
2019-05-09T05:55:29.781Z,3.83
2019-05-09T05:58:08.785Z,3.67
2019-05-09T06:00:43.560Z,4.10
2019-05-09T06:03:17.805Z,3.13
2019-05-09T06:05:58.226Z,3.80
2019-05-09T06:08:28.319Z,3.23
2019-05-09T06:10:59.886Z,3.30
2019-05-09T06:13:34.907Z,3.13
2019-05-09T06:16:08.564Z,3.00
2019-05-09T06:18:39.385Z,3.00
2019-05-09T06:21:10.209Z,3.33
2019-05-09T06:23:48.320Z,3.30
2019-05-09T06:26:21.021Z,2.87
2019-05-09T06:28:57.677Z,3.20
2019-05-09T06:31:29.656Z,3.60
2019-05-09T06:34:15.548Z,3.43
2019-05-09T06:36:48.642Z,3.00
2019-05-09T06:39:25.575Z,2.73
2019-05-09T06:42:10.146Z,3.00
2019-05-09T06:44:49.374Z,2.93
2019-05-09T06:47:22.608Z,2.87
2019-05-09T06:49:57.439Z,3.37
2019-05-09T06:52:28.330Z,2.87
2019-05-09T06:54:59.112Z,2.90
2019-05-09T06:57:29.633Z,2.93
2019-05-09T07:00:00.275Z,3.03
2019-05-09T07:02:32.582Z,3.33
2019-05-09T07:05:08.387Z,3.50
2019-05-09T07:07:57.502Z,2.90
2019-05-09T07:10:28.426Z,2.97
2019-05-09T07:12:59.939Z,3.13
2019-05-09T07:15:30.682Z,3.30
2019-05-09T07:18:01.268Z,2.70
2019-05-09T07:20:33.993Z,3.20
2019-05-09T07:23:04.664Z,2.90
2019-05-09T07:25:44.927Z,3.30
2019-05-09T07:28:17.988Z,3.30
2019-05-09T07:30:53.380Z,3.20
2019-05-09T07:33:28.715Z,3.20
2019-05-09T07:35:59.304Z,3.07
2019-05-09T07:38:32.638Z,3.23
2019-05-09T07:41:03.309Z,3.33
2019-05-09T07:43:33.964Z,3.30
2019-05-09T07:46:21.743Z,3.47
2019-05-09T07:49:03.257Z,2.73
2019-05-09T07:51:33.982Z,3.03
2019-05-09T07:54:21.253Z,3.40
2019-05-09T07:56:38.014Z,3.47
2019-05-09T07:59:08.644Z,3.33
2019-05-09T08:01:39.231Z,3.30
2019-05-09T08:04:09.783Z,3.20
2019-05-09T08:06:40.510Z,2.80
2019-05-09T08:09:11.178Z,3.33
2019-05-09T08:11:41.826Z,2.60
2019-05-09T08:14:12.440Z,2.60
2019-05-09T08:16:43.101Z,2.70
2019-05-09T08:19:13.797Z,2.57
2019-05-09T08:21:44.342Z,2.83
2019-05-09T08:24:14.969Z,2.63
2019-05-09T08:26:47.661Z,3.10
2019-05-09T08:29:20.053Z,5.67
2019-05-09T08:31:50.469Z,3.50
2019-05-09T08:34:21.038Z,3.20
2019-05-09T08:36:51.736Z,3.13
2019-05-09T08:39:22.400Z,3.03
2019-05-09T08:41:54.044Z,2.80
2019-05-09T08:44:24.581Z,2.23
2019-05-09T08:46:57.281Z,2.50
2019-05-09T08:49:37.385Z,2.67
2019-05-09T08:52:15.782Z,2.40
2019-05-09T08:54:45.406Z,2.60
2019-05-09T08:57:18.257Z,2.53
2019-05-09T09:00:13.343Z,2.30
2019-05-09T09:02:45.022Z,3.33
2019-05-09T09:05:18.449Z,2.20
2019-05-09T09:07:51.246Z,2.50
2019-05-09T09:10:21.921Z,1.90
2019-05-09T09:12:52.517Z,1.57
2019-05-09T09:15:23.089Z,1.70
2019-05-09T09:17:53.660Z,2.10
2019-05-09T09:20:24.283Z,2.10
2019-05-09T09:22:54.923Z,2.53
2019-05-09T09:25:25.480Z,2.07
2019-05-09T09:27:58.246Z,2.53
2019-05-09T09:30:29.427Z,1.83
2019-05-09T09:33:00.307Z,2.20
2019-05-09T09:35:30.912Z,2.00
2019-05-09T09:38:01.608Z,1.80
2019-05-09T09:40:53.281Z,2.00
2019-05-09T09:43:23.876Z,1.97
2019-05-09T09:46:10.919Z,1.83
2019-05-09T09:48:38.944Z,1.60
2019-05-09T09:51:09.565Z,1.80
2019-05-09T09:53:40.357Z,1.37
2019-05-09T09:56:12.030Z,1.93
2019-05-09T09:58:44.328Z,2.40
2019-05-09T10:01:18.088Z,1.33
2019-05-09T10:03:50.575Z,1.50
2019-05-09T10:06:21.245Z,1.30
2019-05-09T10:08:51.826Z,1.67
2019-05-09T10:11:23.417Z,1.73
2019-05-09T10:13:54.005Z,1.63
2019-05-09T10:16:30.022Z,1.83
2019-05-09T10:19:08.298Z,1.30
2019-05-09T10:21:43.627Z,1.03
2019-05-09T10:24:17.355Z,1.13
2019-05-09T10:27:08.643Z,1.00
2019-05-09T10:29:39.742Z,0.70
2019-05-09T10:32:18.446Z,0.83
2019-05-09T10:35:08.951Z,0.80
2019-05-09T10:37:44.606Z,0.50
2019-05-09T10:40:23.552Z,1.03
2019-05-09T10:42:58.478Z,0.67
2019-05-09T10:45:39.934Z,0.90
2019-05-09T10:48:08.325Z,0.93
2019-05-09T10:50:44.694Z,1.10
2019-05-09T10:53:13.358Z,1.30
2019-05-09T10:55:45.008Z,1.17
2019-05-09T10:58:20.204Z,1.10
2019-05-09T11:00:58.746Z,1.10
2019-05-09T11:03:29.124Z,0.87
2019-05-09T11:06:05.250Z,1.00
2019-05-09T11:08:38.094Z,1.23
2019-05-09T11:11:09.454Z,1.00
2019-05-09T11:13:42.276Z,1.13
2019-05-09T11:16:12.981Z,1.20
2019-05-09T11:18:43.642Z,1.30
2019-05-09T11:21:14.358Z,1.20
2019-05-09T11:24:03.224Z,1.30
2019-05-09T11:26:33.938Z,1.30
2019-05-09T11:29:19.939Z,1.77
2019-05-09T11:31:50.524Z,1.60
2019-05-09T11:34:26.976Z,1.50
2019-05-09T11:36:58.039Z,1.90
2019-05-09T11:41:02.130Z,2.03
2019-05-09T11:42:02.232Z,1.87
2019-05-09T11:44:32.870Z,2.00
2019-05-09T11:47:04.477Z,2.47
2019-05-09T11:49:48.135Z,2.03
2019-05-09T11:52:19.588Z,2.20
2019-05-09T11:54:50.172Z,1.90
2019-05-09T11:57:20.835Z,2.20
2019-05-09T11:59:53.521Z,4.10
2019-05-09T12:02:25.173Z,15.07
2019-05-09T12:04:56.840Z,4.97
2019-05-09T12:07:28.849Z,9.80
2019-05-09T12:09:59.580Z,7.57
2019-05-09T12:12:30.186Z,2.17
2019-05-09T12:15:00.866Z,1.90
2019-05-09T12:17:57.880Z,1.60
2019-05-09T12:20:27.684Z,1.90
2019-05-09T12:22:59.434Z,2.07
2019-05-09T12:25:30.120Z,2.03
2019-05-09T12:28:02.819Z,1.47
2019-05-09T12:30:38.117Z,1.73
2019-05-09T12:33:11.983Z,1.90
2019-05-09T12:35:42.575Z,1.73
2019-05-09T12:38:13.143Z,2.10
2019-05-09T12:40:48.313Z,1.90
2019-05-09T12:43:18.903Z,1.67
2019-05-09T12:45:50.557Z,2.10
2019-05-09T12:48:21.370Z,1.70
2019-05-09T12:50:58.554Z,1.60
2019-05-09T12:53:32.655Z,1.77
2019-05-09T12:56:03.536Z,1.70
2019-05-09T12:58:34.251Z,2.37
2019-05-09T13:01:07.529Z,1.77
2019-05-09T13:03:38.458Z,1.97
2019-05-09T13:06:09.376Z,2.10
2019-05-09T13:08:40.036Z,2.30
2019-05-09T13:11:10.706Z,2.00
2019-05-09T13:13:41.678Z,2.17
2019-05-09T13:16:43.405Z,2.23
2019-05-09T13:19:06.753Z,2.07
2019-05-09T13:21:38.908Z,2.00
2019-05-09T13:24:09.751Z,2.40
2019-05-09T13:26:42.824Z,2.30
2019-05-09T13:29:38.097Z,2.40
2019-05-09T13:32:08.744Z,2.37
2019-05-09T13:34:52.842Z,2.40
2019-05-09T13:37:24.414Z,2.60
2019-05-09T13:40:02.907Z,2.23
2019-05-09T13:42:39.462Z,2.40
2019-05-09T13:45:20.039Z,2.40
2019-05-09T13:47:51.562Z,2.10
2019-05-09T13:50:32.077Z,2.23
2019-05-09T13:53:02.738Z,2.50
2019-05-09T13:55:33.329Z,2.53
2019-05-09T13:58:10.877Z,3.20
2019-05-09T14:00:55.760Z,3.23
2019-05-09T14:03:14.870Z,3.80
2019-05-09T14:05:47.942Z,3.57
2019-05-09T14:08:18.820Z,3.87
2019-05-09T14:10:49.468Z,3.20
2019-05-09T14:13:23.367Z,3.30
2019-05-09T14:15:57.647Z,3.40
2019-05-09T14:18:31.399Z,3.80
2019-05-09T14:21:07.767Z,3.20
2019-05-09T14:24:14.077Z,3.30
2019-05-09T14:26:35.168Z,4.00
2019-05-09T14:29:05.809Z,3.97
2019-05-09T14:31:55.910Z,4.07
2019-05-09T14:34:26.478Z,3.90
2019-05-09T14:37:02.885Z,4.10
2019-05-09T14:39:34.481Z,4.40
2019-05-09T14:42:05.191Z,4.60
2019-05-09T14:44:37.713Z,4.53
2019-05-09T14:47:08.539Z,3.60
2019-05-09T14:49:44.000Z,3.70
2019-05-09T14:52:13.380Z,3.97
2019-05-09T14:54:44.084Z,3.70
2019-05-09T14:57:22.891Z,3.73
2019-05-09T14:59:58.447Z,4.30
2019-05-09T15:02:29.384Z,4.27
2019-05-09T15:05:02.611Z,4.50
2019-05-09T15:07:33.968Z,3.83
2019-05-09T15:10:05.416Z,4.00
2019-05-09T15:12:42.020Z,4.20
2019-05-09T15:15:12.639Z,3.70
2019-05-09T15:17:43.315Z,4.00
2019-05-09T15:20:18.036Z,2.90
2019-05-09T15:23:02.709Z,3.00
2019-05-09T15:25:38.939Z,3.97
2019-05-09T15:28:11.651Z,4.27
2019-05-09T15:30:48.703Z,3.47
2019-05-09T15:33:18.228Z,3.50
2019-05-09T15:35:59.568Z,2.60
2019-05-09T15:38:30.255Z,2.20
2019-05-09T15:41:01.019Z,2.37
2019-05-09T15:43:44.807Z,2.20
2019-05-09T15:46:18.691Z,2.27
2019-05-09T15:48:58.629Z,2.60
2019-05-09T15:51:32.143Z,2.63
2019-05-09T15:54:04.034Z,2.20
2019-05-09T15:56:34.799Z,2.30
2019-05-09T15:59:18.180Z,1.87
2019-05-09T16:01:50.769Z,2.30
2019-05-09T16:04:21.637Z,2.40
2019-05-09T16:06:57.563Z,2.33
2019-05-09T16:09:28.687Z,2.80
2019-05-09T16:11:59.365Z,1.90
2019-05-09T16:14:29.995Z,1.97
2019-05-09T16:17:07.948Z,2.00
2019-05-09T16:19:40.678Z,2.00
2019-05-09T16:22:11.341Z,1.70
2019-05-09T16:24:42.020Z,1.90
2019-05-09T16:27:20.661Z,1.60
2019-05-09T16:29:53.538Z,1.90
2019-05-09T16:32:37.483Z,2.07
2019-05-09T16:35:10.848Z,1.60
2019-05-09T16:37:58.391Z,1.60
2019-05-09T16:40:13.696Z,2.50
2019-05-09T16:42:47.547Z,1.63
2019-05-09T16:45:18.338Z,1.40
2019-05-09T16:47:57.515Z,1.43
2019-05-09T16:50:28.239Z,1.57
2019-05-09T16:52:58.917Z,1.40
2019-05-09T16:55:43.790Z,1.53
2019-05-09T16:58:20.164Z,2.10
2019-05-09T17:00:52.648Z,1.40
2019-05-09T17:03:23.311Z,1.40
2019-05-09T17:05:53.998Z,1.80
2019-05-09T17:08:24.658Z,2.90
2019-05-09T17:11:09.396Z,1.60
2019-05-09T17:13:42.104Z,2.00
2019-05-09T17:16:12.798Z,1.50
2019-05-09T17:18:49.955Z,1.30
2019-05-09T17:21:28.225Z,1.43
2019-05-09T17:24:01.639Z,1.13
2019-05-09T17:26:32.274Z,1.37
2019-05-09T17:29:05.142Z,1.10
2019-05-09T17:31:38.378Z,1.57
2019-05-09T17:34:09.797Z,1.00
2019-05-09T17:36:40.651Z,1.47
2019-05-09T17:39:11.253Z,1.47
2019-05-09T17:41:41.960Z,2.07
2019-05-09T17:44:20.023Z,2.10
2019-05-09T17:46:57.759Z,2.10
2019-05-09T17:49:28.161Z,2.47
2019-05-09T17:51:58.877Z,2.53
2019-05-09T17:54:29.571Z,2.90
2019-05-09T17:57:00.350Z,2.73
2019-05-09T17:59:35.036Z,2.33
2019-05-09T18:02:05.847Z,2.33
2019-05-09T18:04:37.954Z,3.53
2019-05-09T18:07:10.696Z,3.00
2019-05-09T18:09:44.419Z,2.83
2019-05-09T18:12:15.168Z,2.93
2019-05-09T18:14:51.958Z,3.07
2019-05-09T18:17:22.562Z,3.00
2019-05-09T18:20:08.052Z,3.50
2019-05-09T18:22:39.989Z,3.07
2019-05-09T18:25:25.861Z,3.90
2019-05-09T18:27:58.892Z,3.90
2019-05-09T18:30:30.015Z,3.93
2019-05-09T18:33:02.592Z,3.87
2019-05-09T18:35:40.223Z,4.07
2019-05-09T18:38:17.425Z,3.93
2019-05-09T18:40:48.285Z,3.43
2019-05-09T18:43:18.989Z,3.10
2019-05-09T18:45:54.614Z,3.60
2019-05-09T18:48:27.783Z,3.60
2019-05-09T18:50:58.635Z,3.30
2019-05-09T18:53:34.214Z,3.67
2019-05-09T18:56:04.799Z,3.57
2019-05-09T18:58:38.481Z,4.20
2019-05-09T19:01:17.256Z,3.50
2019-05-09T19:03:48.022Z,3.30
2019-05-09T19:06:21.892Z,3.30
2019-05-09T19:08:54.857Z,3.50
2019-05-09T19:11:32.651Z,4.13
2019-05-09T19:14:04.955Z,4.13
2019-05-09T19:16:43.111Z,4.90
2019-05-09T19:19:15.352Z,4.00
2019-05-09T19:21:47.676Z,3.50
2019-05-09T19:24:18.532Z,2.80
2019-05-09T19:26:57.228Z,3.10
2019-05-09T19:29:34.609Z,3.87
2019-05-09T19:32:12.045Z,4.77
2019-05-09T19:34:45.050Z,4.80
2019-05-09T19:37:16.227Z,4.53
2019-05-09T19:39:46.884Z,3.50
2019-05-09T19:42:17.519Z,2.83
2019-05-09T19:44:53.895Z,3.13
2019-05-09T19:47:24.654Z,2.70
2019-05-09T19:50:00.796Z,2.70
2019-05-09T19:52:38.260Z,2.57
2019-05-09T19:55:03.843Z,2.43
2019-05-09T19:57:38.691Z,3.10
2019-05-09T20:00:12.638Z,4.00
2019-05-09T20:03:05.274Z,3.40
2019-05-09T20:05:36.071Z,2.93
2019-05-09T20:08:23.530Z,3.13
2019-05-09T20:11:07.884Z,3.47
2019-05-09T20:13:42.168Z,3.83
2019-05-09T20:16:12.849Z,3.97
2019-05-09T20:18:43.503Z,3.93
2019-05-09T20:21:15.225Z,3.70
2019-05-09T20:23:52.178Z,3.80
2019-05-09T20:26:26.695Z,3.40
2019-05-09T20:28:57.365Z,4.00
2019-05-09T20:31:29.170Z,3.50
2019-05-09T20:33:59.771Z,3.70
2019-05-09T20:36:42.011Z,3.90
2019-05-09T20:39:19.956Z,4.43
2019-05-09T20:41:57.630Z,4.50
2019-05-09T20:44:32.710Z,4.63
2019-05-09T20:47:03.738Z,4.33
2019-05-09T20:49:34.824Z,4.73
2019-05-09T20:52:06.853Z,4.70
2019-05-09T20:54:37.647Z,4.33
2019-05-09T20:57:11.795Z,5.30
2019-05-09T20:59:42.705Z,5.27
2019-05-09T21:02:25.925Z,5.53
2019-05-09T21:05:09.122Z,5.37
2019-05-09T21:07:41.089Z,5.30
2019-05-09T21:10:12.091Z,6.03
2019-05-09T21:12:49.650Z,5.60
2019-05-09T21:15:20.494Z,5.97
2019-05-09T21:17:51.452Z,7.23
2019-05-09T21:20:22.333Z,7.03
2019-05-09T21:22:53.259Z,7.20
2019-05-09T21:25:24.241Z,6.57
2019-05-09T21:27:56.050Z,6.77
2019-05-09T21:30:27.211Z,6.70
2019-05-09T21:33:06.296Z,6.50
2019-05-09T21:35:52.194Z,7.00
2019-05-09T21:38:24.128Z,6.77
2019-05-09T21:40:54.718Z,7.13
2019-05-09T21:43:26.635Z,7.27
2019-05-09T21:45:58.978Z,7.30
2019-05-09T21:48:38.497Z,7.03
2019-05-09T21:51:09.082Z,6.87
2019-05-09T21:53:55.681Z,6.50
2019-05-09T21:56:27.932Z,7.00
2019-05-09T21:58:59.528Z,6.90
2019-05-09T22:01:32.227Z,6.77
2019-05-09T22:04:08.398Z,6.93
2019-05-09T22:06:40.335Z,7.33
2019-05-09T22:09:11.461Z,8.07
2019-05-09T22:11:47.042Z,7.70
2019-05-09T22:14:18.141Z,8.23
2019-05-09T22:16:49.341Z,8.93
2019-05-09T22:19:31.298Z,8.03
2019-05-09T22:22:06.959Z,8.40
2019-05-09T22:24:38.959Z,8.03
2019-05-09T22:27:09.969Z,8.50
2019-05-09T22:29:40.739Z,7.53
2019-05-09T22:32:13.489Z,8.43
2019-05-09T22:34:50.332Z,8.40
2019-05-09T22:37:21.254Z,7.87
2019-05-09T22:39:53.987Z,8.77
2019-05-09T22:42:24.645Z,8.77
2019-05-09T22:44:55.228Z,9.27
2019-05-09T22:47:25.985Z,9.30
2019-05-09T22:49:56.705Z,9.37
2019-05-09T22:52:27.328Z,8.93
2019-05-09T22:54:57.930Z,8.60
2019-05-09T22:57:28.515Z,7.67
2019-05-09T22:59:59.157Z,6.43
2019-05-09T23:02:29.786Z,5.60
2019-05-09T23:05:00.582Z,5.80
2019-05-09T23:07:32.295Z,5.87
2019-05-09T23:10:03.017Z,5.57
2019-05-09T23:12:38.626Z,6.20
2019-05-09T23:15:11.050Z,5.70
2019-05-09T23:17:41.620Z,6.83
2019-05-09T23:20:30.021Z,6.70
2019-05-09T23:23:02.252Z,7.00
2019-05-09T23:25:32.819Z,7.23
2019-05-09T23:28:04.069Z,8.13
2019-05-09T23:30:40.796Z,8.50
2019-05-09T23:33:12.508Z,8.60
2019-05-09T23:35:43.074Z,8.57
2019-05-09T23:38:23.384Z,8.80
2019-05-09T23:40:54.075Z,9.00
2019-05-09T23:43:24.666Z,8.30
2019-05-09T23:45:55.354Z,8.80
2019-05-09T23:48:25.945Z,8.23
2019-05-09T23:50:56.524Z,8.90
2019-05-09T23:53:32.973Z,8.63
2019-05-09T23:56:33.819Z,8.80
2019-05-09T23:59:22.557Z,7.53
